sensor_id;sensor_type;location;lat;lon;timestamp;temperature;humidity
11426;DHT22;5769;47.998;7.788;2022-10-03T00:00:09;18.50;82.00
11426;DHT22;5769;47.998;7.788;2022-10-03T00:05:50;18.50;82.30
11426;DHT22;5769;47.998;7.788;2022-10-03T00:08:28;18.50;82.30
11426;DHT22;5769;47.998;7.788;2022-10-03T00:11:05;18.50;82.10
11426;DHT22;5769;47.998;7.788;2022-10-03T00:13:40;18.60;82.20
11426;DHT22;5769;47.998;7.788;2022-10-03T00:16:16;18.50;82.10
11426;DHT22;5769;47.998;7.788;2022-10-03T00:18:54;18.60;82.20
11426;DHT22;5769;47.998;7.788;2022-10-03T00:21:42;18.50;82.00
11426;DHT22;5769;47.998;7.788;2022-10-03T00:24:24;18.50;82.20
11426;DHT22;5769;47.998;7.788;2022-10-03T00:26:57;18.50;82.10
11426;DHT22;5769;47.998;7.788;2022-10-03T00:29:53;18.50;82.10
11426;DHT22;5769;47.998;7.788;2022-10-03T00:32:31;18.50;82.10
11426;DHT22;5769;47.998;7.788;2022-10-03T00:35:10;18.50;82.20
11426;DHT22;5769;47.998;7.788;2022-10-03T00:37:44;18.50;81.90
11426;DHT22;5769;47.998;7.788;2022-10-03T00:40:38;18.60;81.90
11426;DHT22;5769;47.998;7.788;2022-10-03T00:43:37;18.60;82.20
11426;DHT22;5769;47.998;7.788;2022-10-03T00:46:31;18.50;82.20
11426;DHT22;5769;47.998;7.788;2022-10-03T00:49:19;18.50;82.20
11426;DHT22;5769;47.998;7.788;2022-10-03T00:52:02;18.50;82.20
11426;DHT22;5769;47.998;7.788;2022-10-03T00:54:49;18.50;82.00
11426;DHT22;5769;47.998;7.788;2022-10-03T00:57:34;18.50;82.10
11426;DHT22;5769;47.998;7.788;2022-10-03T01:00:15;18.50;82.00
11426;DHT22;5769;47.998;7.788;2022-10-03T01:03:10;18.50;82.10
11426;DHT22;5769;47.998;7.788;2022-10-03T01:05:53;18.50;82.10
11426;DHT22;5769;47.998;7.788;2022-10-03T01:09:07;18.50;82.00
11426;DHT22;5769;47.998;7.788;2022-10-03T01:11:47;18.50;81.80
11426;DHT22;5769;47.998;7.788;2022-10-03T01:14:36;18.50;81.90
11426;DHT22;5769;47.998;7.788;2022-10-03T01:17:13;18.50;82.10
11426;DHT22;5769;47.998;7.788;2022-10-03T01:20:05;18.50;82.00
11426;DHT22;5769;47.998;7.788;2022-10-03T01:25:39;18.50;81.70
11426;DHT22;5769;47.998;7.788;2022-10-03T01:28:40;18.50;81.90
11426;DHT22;5769;47.998;7.788;2022-10-03T01:31:31;18.50;82.00
11426;DHT22;5769;47.998;7.788;2022-10-03T01:34:16;18.50;82.70
11426;DHT22;5769;47.998;7.788;2022-10-03T01:36:53;18.50;81.90
11426;DHT22;5769;47.998;7.788;2022-10-03T01:39:30;18.50;81.70
11426;DHT22;5769;47.998;7.788;2022-10-03T01:42:02;18.50;82.00
11426;DHT22;5769;47.998;7.788;2022-10-03T01:44:44;18.50;82.00
11426;DHT22;5769;47.998;7.788;2022-10-03T01:47:22;18.50;82.00
11426;DHT22;5769;47.998;7.788;2022-10-03T01:49:57;18.50;82.00
11426;DHT22;5769;47.998;7.788;2022-10-03T01:52:35;18.50;82.00
11426;DHT22;5769;47.998;7.788;2022-10-03T01:55:13;18.50;81.80
11426;DHT22;5769;47.998;7.788;2022-10-03T01:57:51;18.50;81.90
11426;DHT22;5769;47.998;7.788;2022-10-03T02:00:24;18.50;81.90
11426;DHT22;5769;47.998;7.788;2022-10-03T02:02:59;18.50;82.00
11426;DHT22;5769;47.998;7.788;2022-10-03T02:05:37;18.50;81.70
11426;DHT22;5769;47.998;7.788;2022-10-03T02:08:14;18.50;82.00
11426;DHT22;5769;47.998;7.788;2022-10-03T02:10:47;18.50;82.00
11426;DHT22;5769;47.998;7.788;2022-10-03T02:13:20;18.50;81.80
11426;DHT22;5769;47.998;7.788;2022-10-03T02:16:01;18.50;81.60
11426;DHT22;5769;47.998;7.788;2022-10-03T02:18:38;18.50;82.00
11426;DHT22;5769;47.998;7.788;2022-10-03T02:21:13;18.50;82.60
11426;DHT22;5769;47.998;7.788;2022-10-03T02:23:44;18.50;81.90
11426;DHT22;5769;47.998;7.788;2022-10-03T02:26:30;18.50;81.60
11426;DHT22;5769;47.998;7.788;2022-10-03T02:29:16;18.50;81.80
11426;DHT22;5769;47.998;7.788;2022-10-03T02:38:04;18.50;81.70
11426;DHT22;5769;47.998;7.788;2022-10-03T02:41:00;18.50;81.90
11426;DHT22;5769;47.998;7.788;2022-10-03T02:46:58;18.50;81.60
11426;DHT22;5769;47.998;7.788;2022-10-03T02:52:48;18.50;81.50
11426;DHT22;5769;47.998;7.788;2022-10-03T02:59:02;18.50;81.50
11426;DHT22;5769;47.998;7.788;2022-10-03T03:01:49;18.50;81.50
11426;DHT22;5769;47.998;7.788;2022-10-03T03:07:32;18.50;81.40
11426;DHT22;5769;47.998;7.788;2022-10-03T03:10:32;18.50;81.70
11426;DHT22;5769;47.998;7.788;2022-10-03T03:13:37;18.50;81.50
11426;DHT22;5769;47.998;7.788;2022-10-03T03:16:36;18.50;81.60
11426;DHT22;5769;47.998;7.788;2022-10-03T03:19:21;18.50;81.30
11426;DHT22;5769;47.998;7.788;2022-10-03T03:21:55;18.50;81.40
11426;DHT22;5769;47.998;7.788;2022-10-03T03:24:36;18.50;81.40
11426;DHT22;5769;47.998;7.788;2022-10-03T03:27:27;18.50;81.50
11426;DHT22;5769;47.998;7.788;2022-10-03T03:30:02;18.50;81.50
11426;DHT22;5769;47.998;7.788;2022-10-03T03:32:43;18.50;81.50
11426;DHT22;5769;47.998;7.788;2022-10-03T03:35:22;18.50;81.50
11426;DHT22;5769;47.998;7.788;2022-10-03T03:38:03;18.50;81.40
11426;DHT22;5769;47.998;7.788;2022-10-03T03:40:44;18.50;81.40
11426;DHT22;5769;47.998;7.788;2022-10-03T03:43:52;18.50;81.40
11426;DHT22;5769;47.998;7.788;2022-10-03T03:46:44;18.50;81.40
11426;DHT22;5769;47.998;7.788;2022-10-03T03:49:29;18.50;81.30
11426;DHT22;5769;47.998;7.788;2022-10-03T03:52:18;18.50;81.20
11426;DHT22;5769;47.998;7.788;2022-10-03T04:00:54;18.50;81.20
11426;DHT22;5769;47.998;7.788;2022-10-03T04:03:39;18.50;81.20
11426;DHT22;5769;47.998;7.788;2022-10-03T04:06:32;18.50;81.10
11426;DHT22;5769;47.998;7.788;2022-10-03T04:12:13;18.50;81.10
11426;DHT22;5769;47.998;7.788;2022-10-03T04:15:16;18.50;81.00
11426;DHT22;5769;47.998;7.788;2022-10-03T04:18:05;18.50;80.90
11426;DHT22;5769;47.998;7.788;2022-10-03T04:21:10;18.50;81.00
11426;DHT22;5769;47.998;7.788;2022-10-03T04:23:53;18.50;81.00
11426;DHT22;5769;47.998;7.788;2022-10-03T04:26:38;18.50;81.00
11426;DHT22;5769;47.998;7.788;2022-10-03T04:29:35;18.50;80.80
11426;DHT22;5769;47.998;7.788;2022-10-03T04:32:55;18.50;80.70
11426;DHT22;5769;47.998;7.788;2022-10-03T04:38:40;18.50;80.80
11426;DHT22;5769;47.998;7.788;2022-10-03T04:41:20;18.50;80.70
11426;DHT22;5769;47.998;7.788;2022-10-03T04:44:00;18.50;80.60
11426;DHT22;5769;47.998;7.788;2022-10-03T04:46:41;18.50;80.70
11426;DHT22;5769;47.998;7.788;2022-10-03T04:49:18;18.50;80.70
11426;DHT22;5769;47.998;7.788;2022-10-03T04:51:58;18.50;80.60
11426;DHT22;5769;47.998;7.788;2022-10-03T04:54:44;18.50;80.60
11426;DHT22;5769;47.998;7.788;2022-10-03T04:57:29;18.50;80.70
11426;DHT22;5769;47.998;7.788;2022-10-03T05:00:04;18.50;80.60
11426;DHT22;5769;47.998;7.788;2022-10-03T05:02:44;18.50;80.50
11426;DHT22;5769;47.998;7.788;2022-10-03T05:05:39;18.50;80.60
11426;DHT22;5769;47.998;7.788;2022-10-03T05:08:17;18.50;80.50
11426;DHT22;5769;47.998;7.788;2022-10-03T05:11:00;18.50;80.50
11426;DHT22;5769;47.998;7.788;2022-10-03T05:13:48;18.50;80.30
11426;DHT22;5769;47.998;7.788;2022-10-03T05:16:28;18.50;80.40
11426;DHT22;5769;47.998;7.788;2022-10-03T05:19:29;18.50;80.30
11426;DHT22;5769;47.998;7.788;2022-10-03T05:22:06;18.50;80.20
11426;DHT22;5769;47.998;7.788;2022-10-03T05:24:45;18.50;80.20
11426;DHT22;5769;47.998;7.788;2022-10-03T05:27:28;18.50;80.20
11426;DHT22;5769;47.998;7.788;2022-10-03T05:30:02;18.50;80.00
11426;DHT22;5769;47.998;7.788;2022-10-03T05:32:36;18.50;80.20
11426;DHT22;5769;47.998;7.788;2022-10-03T05:35:28;18.50;80.10
11426;DHT22;5769;47.998;7.788;2022-10-03T05:38:21;18.50;80.10
11426;DHT22;5769;47.998;7.788;2022-10-03T05:41:00;18.50;79.90
11426;DHT22;5769;47.998;7.788;2022-10-03T05:43:42;18.50;80.00
11426;DHT22;5769;47.998;7.788;2022-10-03T05:46:19;18.50;80.00
11426;DHT22;5769;47.998;7.788;2022-10-03T05:48:49;18.50;79.90
11426;DHT22;5769;47.998;7.788;2022-10-03T05:51:51;18.50;79.90
11426;DHT22;5769;47.998;7.788;2022-10-03T05:54:55;18.50;79.70
11426;DHT22;5769;47.998;7.788;2022-10-03T05:57:41;18.50;79.60
11426;DHT22;5769;47.998;7.788;2022-10-03T06:00:19;18.50;79.40
11426;DHT22;5769;47.998;7.788;2022-10-03T06:03:23;18.50;79.20
11426;DHT22;5769;47.998;7.788;2022-10-03T06:06:06;18.50;79.10
11426;DHT22;5769;47.998;7.788;2022-10-03T06:11:55;18.50;79.20
11426;DHT22;5769;47.998;7.788;2022-10-03T06:14:43;18.50;79.20
11426;DHT22;5769;47.998;7.788;2022-10-03T06:17:39;18.50;79.20
11426;DHT22;5769;47.998;7.788;2022-10-03T06:20:45;18.50;78.90
11426;DHT22;5769;47.998;7.788;2022-10-03T06:23:32;18.50;79.10
11426;DHT22;5769;47.998;7.788;2022-10-03T06:26:34;18.50;78.90
11426;DHT22;5769;47.998;7.788;2022-10-03T06:54:22;18.50;78.60
11426;DHT22;5769;47.998;7.788;2022-10-03T06:57:09;18.50;79.10
11426;DHT22;5769;47.998;7.788;2022-10-03T06:59:56;18.50;78.40
11426;DHT22;5769;47.998;7.788;2022-10-03T07:03:03;18.50;78.30
11426;DHT22;5769;47.998;7.788;2022-10-03T07:06:27;18.50;78.50
11426;DHT22;5769;47.998;7.788;2022-10-03T07:15:43;18.50;78.40
11426;DHT22;5769;47.998;7.788;2022-10-03T07:18:42;18.50;78.20
11426;DHT22;5769;47.998;7.788;2022-10-03T07:21:35;18.50;78.00
11426;DHT22;5769;47.998;7.788;2022-10-03T07:24:26;18.50;78.20
11426;DHT22;5769;47.998;7.788;2022-10-03T07:27:16;18.50;78.30
11426;DHT22;5769;47.998;7.788;2022-10-03T07:30:06;18.50;78.50
11426;DHT22;5769;47.998;7.788;2022-10-03T07:33:18;18.50;78.20
11426;DHT22;5769;47.998;7.788;2022-10-03T07:36:16;18.50;78.20
11426;DHT22;5769;47.998;7.788;2022-10-03T07:39:24;18.50;77.90
11426;DHT22;5769;47.998;7.788;2022-10-03T07:42:27;18.50;78.50
11426;DHT22;5769;47.998;7.788;2022-10-03T07:48:33;18.50;78.50
11426;DHT22;5769;47.998;7.788;2022-10-03T07:51:20;18.50;78.40
11426;DHT22;5769;47.998;7.788;2022-10-03T07:54:28;18.50;78.20
11426;DHT22;5769;47.998;7.788;2022-10-03T07:57:31;18.50;78.00
11426;DHT22;5769;47.998;7.788;2022-10-03T08:00:25;18.50;77.80
11426;DHT22;5769;47.998;7.788;2022-10-03T08:06:17;18.50;77.60
11426;DHT22;5769;47.998;7.788;2022-10-03T08:09:25;18.50;77.80
11426;DHT22;5769;47.998;7.788;2022-10-03T08:15:09;18.50;77.60
11426;DHT22;5769;47.998;7.788;2022-10-03T08:18:36;18.50;77.50
11426;DHT22;5769;47.998;7.788;2022-10-03T08:21:14;18.50;77.50
11426;DHT22;5769;47.998;7.788;2022-10-03T08:24:20;18.50;77.40
11426;DHT22;5769;47.998;7.788;2022-10-03T08:27:04;18.50;77.50
11426;DHT22;5769;47.998;7.788;2022-10-03T08:33:07;18.50;77.80
11426;DHT22;5769;47.998;7.788;2022-10-03T08:36:11;18.40;77.80
11426;DHT22;5769;47.998;7.788;2022-10-03T08:39:09;18.50;77.90
11426;DHT22;5769;47.998;7.788;2022-10-03T08:45:26;18.50;78.00
11426;DHT22;5769;47.998;7.788;2022-10-03T08:54:19;18.50;78.00
11426;DHT22;5769;47.998;7.788;2022-10-03T08:57:09;18.50;77.90
11426;DHT22;5769;47.998;7.788;2022-10-03T09:00:10;18.50;78.00
11426;DHT22;5769;47.998;7.788;2022-10-03T09:03:10;18.50;77.90
11426;DHT22;5769;47.998;7.788;2022-10-03T09:09:25;18.50;78.00
11426;DHT22;5769;47.998;7.788;2022-10-03T09:15:34;18.50;77.90
11426;DHT22;5769;47.998;7.788;2022-10-03T09:18:39;18.50;77.80
11426;DHT22;5769;47.998;7.788;2022-10-03T09:25:11;18.50;77.90
11426;DHT22;5769;47.998;7.788;2022-10-03T09:28:09;18.50;77.90
11426;DHT22;5769;47.998;7.788;2022-10-03T09:30:52;18.50;77.90
11426;DHT22;5769;47.998;7.788;2022-10-03T09:33:48;18.50;77.80
11426;DHT22;5769;47.998;7.788;2022-10-03T09:36:47;18.50;77.80
11426;DHT22;5769;47.998;7.788;2022-10-03T09:39:48;18.50;77.80
11426;DHT22;5769;47.998;7.788;2022-10-03T09:43:02;18.50;77.80
11426;DHT22;5769;47.998;7.788;2022-10-03T09:46:05;18.50;77.80
11426;DHT22;5769;47.998;7.788;2022-10-03T09:49:11;18.50;77.90
11426;DHT22;5769;47.998;7.788;2022-10-03T09:52:00;18.50;77.70
11426;DHT22;5769;47.998;7.788;2022-10-03T09:58:34;18.50;77.80
11426;DHT22;5769;47.998;7.788;2022-10-03T10:01:26;18.50;77.80
11426;DHT22;5769;47.998;7.788;2022-10-03T10:13:50;18.50;77.60
11426;DHT22;5769;47.998;7.788;2022-10-03T10:19:43;18.50;77.60
11426;DHT22;5769;47.998;7.788;2022-10-03T10:22:43;18.50;77.60
11426;DHT22;5769;47.998;7.788;2022-10-03T10:25:53;18.50;77.60
11426;DHT22;5769;47.998;7.788;2022-10-03T10:35:21;18.50;77.60
11426;DHT22;5769;47.998;7.788;2022-10-03T10:38:35;18.50;77.80
11426;DHT22;5769;47.998;7.788;2022-10-03T10:57:10;18.60;78.70
11426;DHT22;5769;47.998;7.788;2022-10-03T11:00:15;18.60;78.70
11426;DHT22;5769;47.998;7.788;2022-10-03T11:22:17;18.70;78.50
11426;DHT22;5769;47.998;7.788;2022-10-03T11:31:17;18.80;78.60
11426;DHT22;5769;47.998;7.788;2022-10-03T11:37:06;18.80;78.50
11426;DHT22;5769;47.998;7.788;2022-10-03T11:39:41;18.80;78.60
11426;DHT22;5769;47.998;7.788;2022-10-03T11:42:20;18.90;78.60
11426;DHT22;5769;47.998;7.788;2022-10-03T11:45:05;18.90;78.50
11426;DHT22;5769;47.998;7.788;2022-10-03T11:47:50;18.90;78.40
11426;DHT22;5769;47.998;7.788;2022-10-03T11:50:41;18.90;78.40
11426;DHT22;5769;47.998;7.788;2022-10-03T11:56:32;18.90;78.30
11426;DHT22;5769;47.998;7.788;2022-10-03T11:59:37;19.00;78.30
11426;DHT22;5769;47.998;7.788;2022-10-03T12:02:50;19.00;78.30
11426;DHT22;5769;47.998;7.788;2022-10-03T12:05:46;19.00;78.10
11426;DHT22;5769;47.998;7.788;2022-10-03T12:08:26;19.00;78.20
11426;DHT22;5769;47.998;7.788;2022-10-03T12:11:16;19.00;78.20
11426;DHT22;5769;47.998;7.788;2022-10-03T12:13:55;19.00;78.20
11426;DHT22;5769;47.998;7.788;2022-10-03T12:16:28;19.00;78.10
11426;DHT22;5769;47.998;7.788;2022-10-03T12:19:06;19.00;78.20
11426;DHT22;5769;47.998;7.788;2022-10-03T12:21:53;18.90;78.40
11426;DHT22;5769;47.998;7.788;2022-10-03T12:24:25;18.90;78.50
11426;DHT22;5769;47.998;7.788;2022-10-03T12:27:00;18.90;78.20
11426;DHT22;5769;47.998;7.788;2022-10-03T12:29:33;18.90;78.30
11426;DHT22;5769;47.998;7.788;2022-10-03T12:32:15;18.90;78.50
11426;DHT22;5769;47.998;7.788;2022-10-03T12:34:59;18.90;78.60
11426;DHT22;5769;47.998;7.788;2022-10-03T12:37:50;18.80;78.60
11426;DHT22;5769;47.998;7.788;2022-10-03T12:40:28;18.90;78.60
11426;DHT22;5769;47.998;7.788;2022-10-03T12:43:05;18.80;78.60
11426;DHT22;5769;47.998;7.788;2022-10-03T12:45:41;18.80;78.50
11426;DHT22;5769;47.998;7.788;2022-10-03T12:48:44;18.90;78.50
11426;DHT22;5769;47.998;7.788;2022-10-03T12:54:33;18.90;78.70
11426;DHT22;5769;47.998;7.788;2022-10-03T12:57:35;19.00;78.50
11426;DHT22;5769;47.998;7.788;2022-10-03T13:00:08;19.00;78.50
11426;DHT22;5769;47.998;7.788;2022-10-03T13:02:42;19.00;78.40
11426;DHT22;5769;47.998;7.788;2022-10-03T13:08:44;19.00;78.30
11426;DHT22;5769;47.998;7.788;2022-10-03T13:11:27;19.10;78.40
11426;DHT22;5769;47.998;7.788;2022-10-03T13:14:21;19.00;78.40
11426;DHT22;5769;47.998;7.788;2022-10-03T13:16:56;19.00;78.30
11426;DHT22;5769;47.998;7.788;2022-10-03T13:19:29;19.00;78.50
11426;DHT22;5769;47.998;7.788;2022-10-03T13:22:03;19.00;78.60
11426;DHT22;5769;47.998;7.788;2022-10-03T13:24:39;19.00;78.70
11426;DHT22;5769;47.998;7.788;2022-10-03T13:27:29;19.00;78.80
11426;DHT22;5769;47.998;7.788;2022-10-03T13:30:04;19.00;79.00
11426;DHT22;5769;47.998;7.788;2022-10-03T13:32:33;19.00;78.90
11426;DHT22;5769;47.998;7.788;2022-10-03T13:35:27;19.00;78.90
11426;DHT22;5769;47.998;7.788;2022-10-03T13:38:31;19.00;78.50
11426;DHT22;5769;47.998;7.788;2022-10-03T13:41:11;19.00;78.60
11426;DHT22;5769;47.998;7.788;2022-10-03T13:43:44;19.00;78.40
11426;DHT22;5769;47.998;7.788;2022-10-03T13:46:17;18.90;78.40
11426;DHT22;5769;47.998;7.788;2022-10-03T13:48:52;18.90;78.40
11426;DHT22;5769;47.998;7.788;2022-10-03T13:51:29;18.90;78.70
11426;DHT22;5769;47.998;7.788;2022-10-03T13:54:01;18.90;78.80
11426;DHT22;5769;47.998;7.788;2022-10-03T13:56:44;18.90;79.00
11426;DHT22;5769;47.998;7.788;2022-10-03T13:59:36;18.90;79.00
11426;DHT22;5769;47.998;7.788;2022-10-03T14:02:30;18.90;79.10
11426;DHT22;5769;47.998;7.788;2022-10-03T14:05:16;18.90;79.00
11426;DHT22;5769;47.998;7.788;2022-10-03T14:07:52;18.90;79.10
11426;DHT22;5769;47.998;7.788;2022-10-03T14:10:43;18.80;79.10
11426;DHT22;5769;47.998;7.788;2022-10-03T14:13:22;18.80;79.10
11426;DHT22;5769;47.998;7.788;2022-10-03T14:16:00;18.80;79.10
11426;DHT22;5769;47.998;7.788;2022-10-03T14:18:42;18.80;79.00
11426;DHT22;5769;47.998;7.788;2022-10-03T14:21:41;18.80;79.10
11426;DHT22;5769;47.998;7.788;2022-10-03T14:24:35;18.80;79.10
11426;DHT22;5769;47.998;7.788;2022-10-03T14:27:12;18.80;79.10
11426;DHT22;5769;47.998;7.788;2022-10-03T14:29:53;18.70;79.00
11426;DHT22;5769;47.998;7.788;2022-10-03T14:32:27;18.80;79.20
11426;DHT22;5769;47.998;7.788;2022-10-03T14:35:01;18.80;79.30
11426;DHT22;5769;47.998;7.788;2022-10-03T14:37:38;18.80;79.20
11426;DHT22;5769;47.998;7.788;2022-10-03T14:40:15;18.80;79.30
11426;DHT22;5769;47.998;7.788;2022-10-03T14:43:01;18.80;79.10
11426;DHT22;5769;47.998;7.788;2022-10-03T14:45:37;18.80;79.30
11426;DHT22;5769;47.998;7.788;2022-10-03T14:48:11;18.70;79.30
11426;DHT22;5769;47.998;7.788;2022-10-03T14:50:40;18.80;79.20
11426;DHT22;5769;47.998;7.788;2022-10-03T14:53:16;18.70;79.30
11426;DHT22;5769;47.998;7.788;2022-10-03T14:55:51;18.70;79.30
11426;DHT22;5769;47.998;7.788;2022-10-03T14:58:22;18.70;79.40
11426;DHT22;5769;47.998;7.788;2022-10-03T15:01:02;18.70;79.40
11426;DHT22;5769;47.998;7.788;2022-10-03T15:03:32;18.70;79.40
11426;DHT22;5769;47.998;7.788;2022-10-03T15:06:34;18.70;79.50
11426;DHT22;5769;47.998;7.788;2022-10-03T15:09:07;18.70;79.40
11426;DHT22;5769;47.998;7.788;2022-10-03T15:11:43;18.70;79.50
11426;DHT22;5769;47.998;7.788;2022-10-03T15:14:12;18.70;79.40
11426;DHT22;5769;47.998;7.788;2022-10-03T15:16:46;18.70;79.40
11426;DHT22;5769;47.998;7.788;2022-10-03T15:19:34;18.70;79.40
11426;DHT22;5769;47.998;7.788;2022-10-03T15:22:13;18.70;79.40
11426;DHT22;5769;47.998;7.788;2022-10-03T15:24:44;18.70;79.40
11426;DHT22;5769;47.998;7.788;2022-10-03T15:27:17;18.70;79.40
11426;DHT22;5769;47.998;7.788;2022-10-03T15:29:49;18.60;79.40
11426;DHT22;5769;47.998;7.788;2022-10-03T15:32:22;18.70;79.50
11426;DHT22;5769;47.998;7.788;2022-10-03T15:34:56;18.70;79.50
11426;DHT22;5769;47.998;7.788;2022-10-03T15:37:32;18.70;79.60
11426;DHT22;5769;47.998;7.788;2022-10-03T15:40:06;18.70;79.50
11426;DHT22;5769;47.998;7.788;2022-10-03T15:42:47;18.70;79.60
11426;DHT22;5769;47.998;7.788;2022-10-03T15:45:23;18.70;79.60
11426;DHT22;5769;47.998;7.788;2022-10-03T15:47:57;18.70;79.40
11426;DHT22;5769;47.998;7.788;2022-10-03T15:50:26;18.70;79.50
11426;DHT22;5769;47.998;7.788;2022-10-03T15:52:56;18.70;79.40
11426;DHT22;5769;47.998;7.788;2022-10-03T15:55:29;18.70;79.40
11426;DHT22;5769;47.998;7.788;2022-10-03T15:58:07;18.60;79.40
11426;DHT22;5769;47.998;7.788;2022-10-03T16:00:37;18.70;79.50
11426;DHT22;5769;47.998;7.788;2022-10-03T16:03:12;18.70;79.50
11426;DHT22;5769;47.998;7.788;2022-10-03T16:05:54;18.70;79.40
11426;DHT22;5769;47.998;7.788;2022-10-03T16:08:27;18.70;79.40
11426;DHT22;5769;47.998;7.788;2022-10-03T16:11:07;18.70;79.30
11426;DHT22;5769;47.998;7.788;2022-10-03T16:13:39;18.70;79.20
11426;DHT22;5769;47.998;7.788;2022-10-03T16:16:13;18.60;79.10
11426;DHT22;5769;47.998;7.788;2022-10-03T16:18:53;18.60;79.10
11426;DHT22;5769;47.998;7.788;2022-10-03T16:21:41;18.60;78.90
11426;DHT22;5769;47.998;7.788;2022-10-03T16:24:17;18.70;78.90
11426;DHT22;5769;47.998;7.788;2022-10-03T16:26:53;18.60;78.90
11426;DHT22;5769;47.998;7.788;2022-10-03T16:29:23;18.60;78.80
11426;DHT22;5769;47.998;7.788;2022-10-03T16:32:01;18.60;78.80
11426;DHT22;5769;47.998;7.788;2022-10-03T16:34:35;18.60;78.70
11426;DHT22;5769;47.998;7.788;2022-10-03T16:37:18;18.60;78.70
11426;DHT22;5769;47.998;7.788;2022-10-03T16:39:52;18.60;78.70
11426;DHT22;5769;47.998;7.788;2022-10-03T16:42:26;18.60;78.70
11426;DHT22;5769;47.998;7.788;2022-10-03T16:45:00;18.60;78.70
11426;DHT22;5769;47.998;7.788;2022-10-03T16:47:36;18.60;78.70
11426;DHT22;5769;47.998;7.788;2022-10-03T16:50:20;18.60;78.60
11426;DHT22;5769;47.998;7.788;2022-10-03T16:52:56;18.60;78.60
11426;DHT22;5769;47.998;7.788;2022-10-03T16:55:28;18.60;78.60
11426;DHT22;5769;47.998;7.788;2022-10-03T16:57:58;18.60;78.60
11426;DHT22;5769;47.998;7.788;2022-10-03T17:00:33;18.60;78.50
11426;DHT22;5769;47.998;7.788;2022-10-03T17:03:16;18.60;78.40
11426;DHT22;5769;47.998;7.788;2022-10-03T17:05:50;18.60;78.40
11426;DHT22;5769;47.998;7.788;2022-10-03T17:08:20;18.60;78.30
11426;DHT22;5769;47.998;7.788;2022-10-03T17:10:52;18.60;78.30
11426;DHT22;5769;47.998;7.788;2022-10-03T17:13:27;18.60;78.20
11426;DHT22;5769;47.998;7.788;2022-10-03T17:16:05;18.60;78.30
11426;DHT22;5769;47.998;7.788;2022-10-03T17:18:38;18.60;78.20
11426;DHT22;5769;47.998;7.788;2022-10-03T17:21:21;18.60;78.20
11426;DHT22;5769;47.998;7.788;2022-10-03T17:23:59;18.60;78.40
11426;DHT22;5769;47.998;7.788;2022-10-03T17:26:32;18.60;78.30
11426;DHT22;5769;47.998;7.788;2022-10-03T17:29:09;18.60;78.50
11426;DHT22;5769;47.998;7.788;2022-10-03T17:31:43;18.60;78.40
11426;DHT22;5769;47.998;7.788;2022-10-03T17:34:16;18.60;78.50
11426;DHT22;5769;47.998;7.788;2022-10-03T17:37:18;18.60;78.60
11426;DHT22;5769;47.998;7.788;2022-10-03T17:39:55;18.60;79.10
11426;DHT22;5769;47.998;7.788;2022-10-03T17:42:43;18.60;79.10
11426;DHT22;5769;47.998;7.788;2022-10-03T17:45:29;18.60;79.10
11426;DHT22;5769;47.998;7.788;2022-10-03T17:48:03;18.60;79.10
11426;DHT22;5769;47.998;7.788;2022-10-03T17:50:36;18.60;79.00
11426;DHT22;5769;47.998;7.788;2022-10-03T17:53:14;18.60;79.00
11426;DHT22;5769;47.998;7.788;2022-10-03T17:55:43;18.60;79.00
11426;DHT22;5769;47.998;7.788;2022-10-03T17:58:12;18.60;79.00
11426;DHT22;5769;47.998;7.788;2022-10-03T18:01:04;18.60;79.00
11426;DHT22;5769;47.998;7.788;2022-10-03T18:03:40;18.60;79.00
11426;DHT22;5769;47.998;7.788;2022-10-03T18:06:36;18.60;79.00
11426;DHT22;5769;47.998;7.788;2022-10-03T18:09:30;18.60;79.00
11426;DHT22;5769;47.998;7.788;2022-10-03T18:12:18;18.60;79.00
11426;DHT22;5769;47.998;7.788;2022-10-03T18:20:45;18.60;79.00
11426;DHT22;5769;47.998;7.788;2022-10-03T18:23:19;18.60;78.90
11426;DHT22;5769;47.998;7.788;2022-10-03T18:25:53;18.60;78.90
11426;DHT22;5769;47.998;7.788;2022-10-03T18:28:31;18.60;78.90
11426;DHT22;5769;47.998;7.788;2022-10-03T18:31:02;18.60;78.80
11426;DHT22;5769;47.998;7.788;2022-10-03T18:33:47;18.60;78.70
11426;DHT22;5769;47.998;7.788;2022-10-03T18:36:22;18.60;78.60
11426;DHT22;5769;47.998;7.788;2022-10-03T18:38:55;18.60;78.60
11426;DHT22;5769;47.998;7.788;2022-10-03T18:41:26;18.60;78.50
11426;DHT22;5769;47.998;7.788;2022-10-03T18:44:03;18.60;78.50
11426;DHT22;5769;47.998;7.788;2022-10-03T18:46:37;18.60;78.40
11426;DHT22;5769;47.998;7.788;2022-10-03T18:49:13;18.60;78.40
11426;DHT22;5769;47.998;7.788;2022-10-03T18:51:44;18.60;78.40
11426;DHT22;5769;47.998;7.788;2022-10-03T18:54:27;18.60;78.40
11426;DHT22;5769;47.998;7.788;2022-10-03T18:57:08;18.60;78.40
11426;DHT22;5769;47.998;7.788;2022-10-03T18:59:46;18.60;78.40
11426;DHT22;5769;47.998;7.788;2022-10-03T19:02:24;18.60;78.30
11426;DHT22;5769;47.998;7.788;2022-10-03T19:04:54;18.60;78.30
11426;DHT22;5769;47.998;7.788;2022-10-03T19:07:27;18.60;78.40
11426;DHT22;5769;47.998;7.788;2022-10-03T19:13:10;18.60;78.20
11426;DHT22;5769;47.998;7.788;2022-10-03T19:16:01;18.60;78.10
11426;DHT22;5769;47.998;7.788;2022-10-03T19:18:41;18.60;78.10
11426;DHT22;5769;47.998;7.788;2022-10-03T19:21:17;18.60;78.00
11426;DHT22;5769;47.998;7.788;2022-10-03T19:23:52;18.60;78.10
11426;DHT22;5769;47.998;7.788;2022-10-03T19:26:29;18.60;78.10
11426;DHT22;5769;47.998;7.788;2022-10-03T19:29:03;18.60;78.10
11426;DHT22;5769;47.998;7.788;2022-10-03T19:31:36;18.60;78.00
11426;DHT22;5769;47.998;7.788;2022-10-03T19:34:16;18.60;78.00
11426;DHT22;5769;47.998;7.788;2022-10-03T19:36:50;18.60;78.10
11426;DHT22;5769;47.998;7.788;2022-10-03T19:39:22;18.60;78.00
11426;DHT22;5769;47.998;7.788;2022-10-03T19:42:12;18.60;77.90
11426;DHT22;5769;47.998;7.788;2022-10-03T19:44:54;18.60;77.80
11426;DHT22;5769;47.998;7.788;2022-10-03T19:47:30;18.60;78.00
11426;DHT22;5769;47.998;7.788;2022-10-03T19:50:10;18.60;78.00
11426;DHT22;5769;47.998;7.788;2022-10-03T19:52:43;18.60;77.90
11426;DHT22;5769;47.998;7.788;2022-10-03T19:55:12;18.60;77.90
11426;DHT22;5769;47.998;7.788;2022-10-03T19:57:45;18.60;77.90
11426;DHT22;5769;47.998;7.788;2022-10-03T20:00:38;18.60;77.80
11426;DHT22;5769;47.998;7.788;2022-10-03T20:03:11;18.60;77.70
11426;DHT22;5769;47.998;7.788;2022-10-03T20:05:47;18.60;77.70
11426;DHT22;5769;47.998;7.788;2022-10-03T20:08:39;18.60;77.70
11426;DHT22;5769;47.998;7.788;2022-10-03T20:11:36;18.60;77.80
11426;DHT22;5769;47.998;7.788;2022-10-03T20:14:05;18.60;77.90
11426;DHT22;5769;47.998;7.788;2022-10-03T20:16:41;18.60;77.90
11426;DHT22;5769;47.998;7.788;2022-10-03T20:19:10;18.60;77.90
11426;DHT22;5769;47.998;7.788;2022-10-03T20:21:39;18.60;77.80
11426;DHT22;5769;47.998;7.788;2022-10-03T20:24:16;18.60;77.80
11426;DHT22;5769;47.998;7.788;2022-10-03T20:26:53;18.60;77.90
11426;DHT22;5769;47.998;7.788;2022-10-03T20:29:29;18.60;77.80
11426;DHT22;5769;47.998;7.788;2022-10-03T20:32:00;18.60;77.80
11426;DHT22;5769;47.998;7.788;2022-10-03T20:34:28;18.60;77.90
11426;DHT22;5769;47.998;7.788;2022-10-03T20:37:20;18.60;77.80